sensor_id;sensor_type;location;lat;lon;timestamp;pressure;altitude;pressure_sealevel;temperature;humidity
12879;BME280;20617;49.476;10.986;2023-04-15T00:00:02;97245.25;;;8.58;100.00
12879;BME280;20617;49.476;10.986;2023-04-15T00:02:14;97237.69;;;8.54;100.00
12879;BME280;20617;49.476;10.986;2023-04-15T00:04:20;97237.78;;;8.52;100.00
12879;BME280;20617;49.476;10.986;2023-04-15T00:06:25;97230.00;;;8.52;100.00
12879;BME280;20617;49.476;10.986;2023-04-15T00:08:30;97230.56;;;8.57;100.00
12879;BME280;20617;49.476;10.986;2023-04-15T00:10:34;97229.13;;;8.52;100.00
12879;BME280;20617;49.476;10.986;2023-04-15T00:12:42;97227.41;;;8.52;100.00
12879;BME280;20617;49.476;10.986;2023-04-15T00:14:48;97223.78;;;8.55;100.00
12879;BME280;20617;49.476;10.986;2023-04-15T00:16:52;97235.19;;;8.52;100.00
12879;BME280;20617;49.476;10.986;2023-04-15T00:18:58;97230.06;;;8.51;100.00
12879;BME280;20617;49.476;10.986;2023-04-15T00:21:04;97222.06;;;8.55;100.00
12879;BME280;20617;49.476;10.986;2023-04-15T00:23:09;97231.28;;;8.61;100.00
12879;BME280;20617;49.476;10.986;2023-04-15T00:25:15;97228.06;;;8.73;100.00
12879;BME280;20617;49.476;10.986;2023-04-15T00:27:19;97225.38;;;8.75;100.00
12879;BME280;20617;49.476;10.986;2023-04-15T00:29:27;97217.25;;;8.81;100.00
12879;BME280;20617;49.476;10.986;2023-04-15T00:31:32;97218.47;;;8.91;100.00
12879;BME280;20617;49.476;10.986;2023-04-15T00:33:37;97215.22;;;8.88;100.00
12879;BME280;20617;49.476;10.986;2023-04-15T00:35:45;97214.13;;;8.92;100.00
12879;BME280;20617;49.476;10.986;2023-04-15T00:37:51;97210.94;;;8.87;100.00
12879;BME280;20617;49.476;10.986;2023-04-15T00:39:56;97203.28;;;8.83;100.00
12879;BME280;20617;49.476;10.986;2023-04-15T00:42:01;97199.69;;;8.70;100.00
12879;BME280;20617;49.476;10.986;2023-04-15T00:44:07;97199.38;;;8.59;100.00
12879;BME280;20617;49.476;10.986;2023-04-15T00:46:16;97202.59;;;8.64;100.00
12879;BME280;20617;49.476;10.986;2023-04-15T00:48:23;97201.16;;;8.58;100.00
12879;BME280;20617;49.476;10.986;2023-04-15T00:50:28;97207.38;;;8.54;100.00
12879;BME280;20617;49.476;10.986;2023-04-15T00:52:33;97209.81;;;8.57;100.00
12879;BME280;20617;49.476;10.986;2023-04-15T00:54:38;97200.44;;;8.55;100.00
12879;BME280;20617;49.476;10.986;2023-04-15T00:56:43;97203.03;;;8.55;100.00
12879;BME280;20617;49.476;10.986;2023-04-15T00:58:48;97199.00;;;8.49;100.00
12879;BME280;20617;49.476;10.986;2023-04-15T01:00:54;97199.69;;;8.53;100.00
12879;BME280;20617;49.476;10.986;2023-04-15T01:03:02;97194.50;;;8.53;100.00
12879;BME280;20617;49.476;10.986;2023-04-15T01:05:08;97197.41;;;8.64;100.00
12879;BME280;20617;49.476;10.986;2023-04-15T01:07:13;97199.13;;;8.64;100.00
12879;BME280;20617;49.476;10.986;2023-04-15T01:09:18;97192.38;;;8.61;100.00
12879;BME280;20617;49.476;10.986;2023-04-15T01:11:25;97192.28;;;8.45;100.00
12879;BME280;20617;49.476;10.986;2023-04-15T01:13:32;97196.72;;;8.43;100.00
12879;BME280;20617;49.476;10.986;2023-04-15T01:15:38;97202.44;;;8.32;100.00
12879;BME280;20617;49.476;10.986;2023-04-15T01:17:43;97194.19;;;8.24;100.00
12879;BME280;20617;49.476;10.986;2023-04-15T01:19:51;97194.94;;;8.09;100.00
12879;BME280;20617;49.476;10.986;2023-04-15T01:21:56;97188.16;;;8.06;100.00
12879;BME280;20617;49.476;10.986;2023-04-15T01:24:03;97190.03;;;8.03;100.00
12879;BME280;20617;49.476;10.986;2023-04-15T01:26:15;97195.94;;;8.06;100.00
12879;BME280;20617;49.476;10.986;2023-04-15T01:28:21;97196.25;;;8.00;100.00
12879;BME280;20617;49.476;10.986;2023-04-15T01:30:26;97192.88;;;7.98;100.00
12879;BME280;20617;49.476;10.986;2023-04-15T01:32:31;97189.31;;;8.01;100.00
12879;BME280;20617;49.476;10.986;2023-04-15T01:34:36;97180.84;;;7.97;100.00
12879;BME280;20617;49.476;10.986;2023-04-15T01:36:41;97191.78;;;7.85;100.00
12879;BME280;20617;49.476;10.986;2023-04-15T01:38:46;97185.47;;;7.90;100.00
12879;BME280;20617;49.476;10.986;2023-04-15T01:40:52;97191.47;;;7.91;100.00
12879;BME280;20617;49.476;10.986;2023-04-15T01:43:01;97180.38;;;7.89;100.00
12879;BME280;20617;49.476;10.986;2023-04-15T01:45:07;97177.84;;;7.87;100.00
12879;BME280;20617;49.476;10.986;2023-04-15T01:47:13;97180.44;;;7.87;100.00
12879;BME280;20617;49.476;10.986;2023-04-15T01:49:18;97185.75;;;7.84;100.00
12879;BME280;20617;49.476;10.986;2023-04-15T01:51:23;97180.72;;;7.81;100.00
12879;BME280;20617;49.476;10.986;2023-04-15T01:53:28;97187.66;;;7.81;100.00
12879;BME280;20617;49.476;10.986;2023-04-15T01:55:33;97183.03;;;7.87;100.00
12879;BME280;20617;49.476;10.986;2023-04-15T01:57:38;97184.78;;;7.87;100.00
12879;BME280;20617;49.476;10.986;2023-04-15T01:59:46;97181.22;;;7.89;100.00
12879;BME280;20617;49.476;10.986;2023-04-15T02:01:51;97175.09;;;7.90;100.00
12879;BME280;20617;49.476;10.986;2023-04-15T02:03:55;97173.97;;;7.96;100.00
12879;BME280;20617;49.476;10.986;2023-04-15T02:06:00;97170.16;;;8.03;100.00
12879;BME280;20617;49.476;10.986;2023-04-15T02:08:05;97175.50;;;8.00;100.00
12879;BME280;20617;49.476;10.986;2023-04-15T02:10:12;97172.16;;;7.98;100.00
12879;BME280;20617;49.476;10.986;2023-04-15T02:12:17;97167.25;;;7.92;100.00
12879;BME280;20617;49.476;10.986;2023-04-15T02:14:23;97171.53;;;7.93;100.00
12879;BME280;20617;49.476;10.986;2023-04-15T02:16:31;97169.22;;;7.87;100.00
12879;BME280;20617;49.476;10.986;2023-04-15T02:18:36;97167.94;;;7.78;100.00
12879;BME280;20617;49.476;10.986;2023-04-15T02:20:43;97174.56;;;7.84;100.00
12879;BME280;20617;49.476;10.986;2023-04-15T02:22:48;97169.44;;;7.82;100.00
12879;BME280;20617;49.476;10.986;2023-04-15T02:24:53;97174.94;;;7.76;100.00
12879;BME280;20617;49.476;10.986;2023-04-15T02:26:58;97180.63;;;7.65;100.00
12879;BME280;20617;49.476;10.986;2023-04-15T02:29:04;97172.47;;;7.73;100.00
12879;BME280;20617;49.476;10.986;2023-04-15T02:31:09;97173.09;;;7.78;100.00
12879;BME280;20617;49.476;10.986;2023-04-15T02:33:16;97174.72;;;7.81;100.00
12879;BME280;20617;49.476;10.986;2023-04-15T02:35:21;97176.22;;;7.85;100.00
12879;BME280;20617;49.476;10.986;2023-04-15T02:37:26;97174.56;;;7.84;100.00
12879;BME280;20617;49.476;10.986;2023-04-15T02:39:33;97174.56;;;7.84;100.00
12879;BME280;20617;49.476;10.986;2023-04-15T02:41:38;97174.94;;;7.93;100.00
12879;BME280;20617;49.476;10.986;2023-04-15T02:43:45;97177.53;;;7.93;100.00
12879;BME280;20617;49.476;10.986;2023-04-15T02:45:51;97169.75;;;7.93;100.00
12879;BME280;20617;49.476;10.986;2023-04-15T02:47:56;97174.66;;;8.00;100.00
12879;BME280;20617;49.476;10.986;2023-04-15T02:50:09;97177.09;;;8.03;100.00
12879;BME280;20617;49.476;10.986;2023-04-15T02:52:16;97179.41;;;8.09;100.00
12879;BME280;20617;49.476;10.986;2023-04-15T02:54:22;97181.75;;;8.13;100.00
12879;BME280;20617;49.476;10.986;2023-04-15T02:56:27;97175.56;;;8.16;100.00
12879;BME280;20617;49.476;10.986;2023-04-15T02:58:32;97173.06;;;8.14;100.00
12879;BME280;20617;49.476;10.986;2023-04-15T03:00:37;97181.59;;;8.16;100.00
12879;BME280;20617;49.476;10.986;2023-04-15T03:02:44;97185.72;;;8.21;100.00
12879;BME280;20617;49.476;10.986;2023-04-15T03:04:53;97175.22;;;8.24;100.00
12879;BME280;20617;49.476;10.986;2023-04-15T03:07:02;97172.97;;;8.16;100.00
12879;BME280;20617;49.476;10.986;2023-04-15T03:09:07;97177.66;;;8.09;100.00
12879;BME280;20617;49.476;10.986;2023-04-15T03:11:13;97175.06;;;8.09;100.00
12879;BME280;20617;49.476;10.986;2023-04-15T03:13:19;97181.53;;;8.01;100.00
12879;BME280;20617;49.476;10.986;2023-04-15T03:15:25;97179.56;;;8.06;100.00
12879;BME280;20617;49.476;10.986;2023-04-15T03:17:30;97172.75;;;8.03;100.00
12879;BME280;20617;49.476;10.986;2023-04-15T03:19:36;97179.56;;;8.06;100.00
12879;BME280;20617;49.476;10.986;2023-04-15T03:21:42;97178.63;;;8.07;100.00
12879;BME280;20617;49.476;10.986;2023-04-15T03:23:50;97181.91;;;8.10;100.00
12879;BME280;20617;49.476;10.986;2023-04-15T03:25:55;97176.97;;;8.06;100.00
12879;BME280;20617;49.476;10.986;2023-04-15T03:28:02;97177.94;;;8.03;100.00
12879;BME280;20617;49.476;10.986;2023-04-15T03:30:08;97176.25;;;8.02;100.00
12879;BME280;20617;49.476;10.986;2023-04-15T03:32:14;97180.84;;;7.97;100.00
12879;BME280;20617;49.476;10.986;2023-04-15T03:34:19;97173.28;;;7.92;100.00
12879;BME280;20617;49.476;10.986;2023-04-15T03:36:24;97177.47;;;7.95;100.00
12879;BME280;20617;49.476;10.986;2023-04-15T03:38:29;97176.31;;;7.83;100.00
12879;BME280;20617;49.476;10.986;2023-04-15T03:40:37;97178.22;;;7.80;100.00
12879;BME280;20617;49.476;10.986;2023-04-15T03:42:42;97171.50;;;7.76;100.00
12879;BME280;20617;49.476;10.986;2023-04-15T03:44:47;97177.38;;;7.79;100.00
12879;BME280;20617;49.476;10.986;2023-04-15T03:46:52;97181.22;;;7.89;100.00
12879;BME280;20617;49.476;10.986;2023-04-15T03:48:57;97177.00;;;7.87;100.00
12879;BME280;20617;49.476;10.986;2023-04-15T03:51:02;97176.22;;;7.85;100.00
12879;BME280;20617;49.476;10.986;2023-04-15T03:53:08;97172.44;;;7.92;100.00
12879;BME280;20617;49.476;10.986;2023-04-15T03:55:13;97170.69;;;7.92;100.00
12879;BME280;20617;49.476;10.986;2023-04-15T03:57:20;97173.44;;;7.89;100.00
12879;BME280;20617;49.476;10.986;2023-04-15T03:59:25;97170.84;;;7.89;100.00
12879;BME280;20617;49.476;10.986;2023-04-15T04:01:30;97169.38;;;7.84;100.00
12879;BME280;20617;49.476;10.986;2023-04-15T04:03:35;97172.03;;;7.82;100.00
12879;BME280;20617;49.476;10.986;2023-04-15T04:05:41;97172.91;;;7.83;100.00
12879;BME280;20617;49.476;10.986;2023-04-15T04:07:45;97174.56;;;7.84;100.00
12879;BME280;20617;49.476;10.986;2023-04-15T04:09:50;97175.09;;;7.90;100.00
12879;BME280;20617;49.476;10.986;2023-04-15T04:11:55;97183.34;;;7.99;100.00
12879;BME280;20617;49.476;10.986;2023-04-15T04:14:03;97176.19;;;8.04;100.00
12879;BME280;20617;49.476;10.986;2023-04-15T04:16:08;97184.94;;;8.01;100.00
12879;BME280;20617;49.476;10.986;2023-04-15T04:18:13;97178.00;;;8.02;100.00
12879;BME280;20617;49.476;10.986;2023-04-15T04:20:18;97184.03;;;8.02;100.00
12879;BME280;20617;49.476;10.986;2023-04-15T04:22:23;97180.44;;;8.05;100.00
12879;BME280;20617;49.476;10.986;2023-04-15T04:24:28;97179.69;;;8.03;100.00
12879;BME280;20617;49.476;10.986;2023-04-15T04:26:33;97178.00;;;8.02;100.00
12879;BME280;20617;49.476;10.986;2023-04-15T04:28:38;97180.06;;;7.95;100.00
12879;BME280;20617;49.476;10.986;2023-04-15T04:30:45;97179.28;;;7.93;100.00
12879;BME280;20617;49.476;10.986;2023-04-15T04:32:50;97179.44;;;7.90;100.00
12879;BME280;20617;49.476;10.986;2023-04-15T04:34:55;97188.63;;;7.97;100.00
12879;BME280;20617;49.476;10.986;2023-04-15T04:37:00;97189.66;;;7.93;100.00
12879;BME280;20617;49.476;10.986;2023-04-15T04:39:05;97191.94;;;7.99;100.00
12879;BME280;20617;49.476;10.986;2023-04-15T04:41:10;97184.94;;;8.01;100.00
12879;BME280;20617;49.476;10.986;2023-04-15T04:43:15;97188.69;;;7.96;100.00
12879;BME280;20617;49.476;10.986;2023-04-15T04:45:20;97181.81;;;7.94;100.00
12879;BME280;20617;49.476;10.986;2023-04-15T04:47:28;97182.56;;;7.97;100.00
12879;BME280;20617;49.476;10.986;2023-04-15T04:49:33;97184.41;;;7.94;100.00
12879;BME280;20617;49.476;10.986;2023-04-15T04:51:38;97196.50;;;7.94;100.00
12879;BME280;20617;49.476;10.986;2023-04-15T04:53:43;97187.69;;;7.98;100.00
12879;BME280;20617;49.476;10.986;2023-04-15T04:55:48;97196.50;;;7.94;100.00
12879;BME280;20617;49.476;10.986;2023-04-15T04:57:53;97195.38;;;8.00;100.00
12879;BME280;20617;49.476;10.986;2023-04-15T04:59:58;97189.34;;;7.99;100.00
12879;BME280;20617;49.476;10.986;2023-04-15T05:02:03;97184.56;;;7.91;100.00
12879;BME280;20617;49.476;10.986;2023-04-15T05:04:11;97193.31;;;7.89;100.00
12879;BME280;20617;49.476;10.986;2023-04-15T05:06:16;97193.25;;;7.90;100.00
12879;BME280;20617;49.476;10.986;2023-04-15T05:08:21;97195.78;;;7.92;100.00
12879;BME280;20617;49.476;10.986;2023-04-15T05:10:26;97188.69;;;7.96;100.00
12879;BME280;20617;49.476;10.986;2023-04-15T05:12:30;97192.41;;;7.90;100.00
12879;BME280;20617;49.476;10.986;2023-04-15T05:14:35;97193.19;;;7.92;100.00
12879;BME280;20617;49.476;10.986;2023-04-15T05:16:40;97189.59;;;7.94;100.00
12879;BME280;20617;49.476;10.986;2023-04-15T05:18:45;97193.47;;;7.86;100.00
12879;BME280;20617;49.476;10.986;2023-04-15T05:20:53;97190.94;;;7.84;100.00
12879;BME280;20617;49.476;10.986;2023-04-15T05:22:58;97199.66;;;7.83;100.00
12879;BME280;20617;49.476;10.986;2023-04-15T05:25:04;97202.28;;;7.82;100.00
12879;BME280;20617;49.476;10.986;2023-04-15T05:27:09;97198.56;;;7.87;100.00
12879;BME280;20617;49.476;10.986;2023-04-15T05:29:14;97200.94;;;7.92;100.00
12879;BME280;20617;49.476;10.986;2023-04-15T05:31:19;97199.41;;;7.88;100.00
12879;BME280;20617;49.476;10.986;2023-04-15T05:33:24;97200.13;;;7.91;100.00
12879;BME280;20617;49.476;10.986;2023-04-15T05:35:29;97196.44;;;7.96;100.00
12879;BME280;20617;49.476;10.986;2023-04-15T05:37:37;97203.09;;;8.01;100.00
12879;BME280;20617;49.476;10.986;2023-04-15T05:39:42;97202.94;;;8.04;100.00
12879;BME280;20617;49.476;10.986;2023-04-15T05:41:47;97201.72;;;8.11;100.00
12879;BME280;20617;49.476;10.986;2023-04-15T05:43:52;97206.22;;;8.08;100.00
12879;BME280;20617;49.476;10.986;2023-04-15T05:45:57;97209.28;;;8.16;100.00
12879;BME280;20617;49.476;10.986;2023-04-15T05:48:02;97208.59;;;8.12;100.00
12879;BME280;20617;49.476;10.986;2023-04-15T05:50:07;97209.66;;;8.26;100.00
12879;BME280;20617;49.476;10.986;2023-04-15T05:52:12;97213.38;;;8.37;100.00
12879;BME280;20617;49.476;10.986;2023-04-15T05:54:20;97211.38;;;8.44;100.00
12879;BME280;20617;49.476;10.986;2023-04-15T05:56:25;97207.19;;;8.42;100.00
12879;BME280;20617;49.476;10.986;2023-04-15T05:58:30;97213.88;;;8.46;100.00
12879;BME280;20617;49.476;10.986;2023-04-15T06:00:35;97212.13;;;8.46;100.00
12879;BME280;20617;49.476;10.986;2023-04-15T06:02:40;97209.16;;;8.54;100.00
12879;BME280;20617;49.476;10.986;2023-04-15T06:04:46;97217.69;;;8.56;100.00
12879;BME280;20617;49.476;10.986;2023-04-15T06:06:51;97208.69;;;8.63;100.00
12879;BME280;20617;49.476;10.986;2023-04-15T06:08:56;97204.88;;;8.70;100.00
12879;BME280;20617;49.476;10.986;2023-04-15T06:11:04;97203.56;;;8.79;100.00
12879;BME280;20617;49.476;10.986;2023-04-15T06:13:09;97213.22;;;8.75;100.00
12879;BME280;20617;49.476;10.986;2023-04-15T06:15:14;97220.59;;;8.67;100.00
12879;BME280;20617;49.476;10.986;2023-04-15T06:17:19;97223.34;;;8.64;100.00
12879;BME280;20617;49.476;10.986;2023-04-15T06:19:24;97212.97;;;8.64;100.00
12879;BME280;20617;49.476;10.986;2023-04-15T06:21:29;97216.25;;;8.68;100.00
12879;BME280;20617;49.476;10.986;2023-04-15T06:23:35;97214.16;;;8.74;100.00
12879;BME280;20617;49.476;10.986;2023-04-15T06:25:42;97210.63;;;8.75;100.00
12879;BME280;20617;49.476;10.986;2023-04-15T06:27:49;97217.13;;;8.67;100.00
12879;BME280;20617;49.476;10.986;2023-04-15T06:29:54;97217.91;;;8.69;100.00
12879;BME280;20617;49.476;10.986;2023-04-15T06:31:59;97216.38;;;8.82;100.00
12879;BME280;20617;49.476;10.986;2023-04-15T06:34:04;97209.31;;;8.84;100.00
12879;BME280;20617;49.476;10.986;2023-04-15T06:36:09;97212.63;;;8.88;100.00
12879;BME280;20617;49.476;10.986;2023-04-15T06:38:14;97206.09;;;8.96;100.00
12879;BME280;20617;49.476;10.986;2023-04-15T06:40:19;97206.63;;;9.03;100.00
12879;BME280;20617;49.476;10.986;2023-04-15T06:42:24;97210.56;;;9.10;100.00
12879;BME280;20617;49.476;10.986;2023-04-15T06:44:32;97209.31;;;9.17;100.00
12879;BME280;20617;49.476;10.986;2023-04-15T06:46:38;97214.25;;;9.22;100.00
12879;BME280;20617;49.476;10.986;2023-04-15T06:48:43;97207.91;;;9.27;100.00
12879;BME280;20617;49.476;10.986;2023-04-15T06:50:48;97211.75;;;9.20;100.00
12879;BME280;20617;49.476;10.986;2023-04-15T06:52:54;97210.50;;;9.12;100.00
12879;BME280;20617;49.476;10.986;2023-04-15T06:55:00;97211.81;;;9.03;100.00
12879;BME280;20617;49.476;10.986;2023-04-15T06:57:05;97210.97;;;9.02;100.00
12879;BME280;20617;49.476;10.986;2023-04-15T06:59:10;97211.47;;;9.09;100.00
12879;BME280;20617;49.476;10.986;2023-04-15T07:01:17;97210.16;;;9.18;100.00
12879;BME280;20617;49.476;10.986;2023-04-15T07:03:23;97209.94;;;9.22;100.00
12879;BME280;20617;49.476;10.986;2023-04-15T07:05:28;97212.03;;;9.32;100.00
12879;BME280;20617;49.476;10.986;2023-04-15T07:07:34;97211.69;;;9.38;100.00
12879;BME280;20617;49.476;10.986;2023-04-15T07:09:39;97211.34;;;9.44;100.00
12879;BME280;20617;49.476;10.986;2023-04-15T07:11:44;97211.94;;;9.49;100.00
12879;BME280;20617;49.476;10.986;2023-04-15T07:13:49;97206.59;;;9.52;100.00
12879;BME280;20617;49.476;10.986;2023-04-15T07:15:54;97207.66;;;9.48;100.00
12879;BME280;20617;49.476;10.986;2023-04-15T07:18:02;97207.50;;;9.51;100.00
12879;BME280;20617;49.476;10.986;2023-04-15T07:20:08;97196.25;;;9.50;100.00
12879;BME280;20617;49.476;10.986;2023-04-15T07:22:13;97206.75;;;9.49;100.00
12879;BME280;20617;49.476;10.986;2023-04-15T07:24:18;97208.34;;;9.51;100.00
12879;BME280;20617;49.476;10.986;2023-04-15T07:26:27;97204.06;;;9.66;100.00
12879;BME280;20617;49.476;10.986;2023-04-15T07:28:32;97203.72;;;9.72;100.00
12879;BME280;20617;49.476;10.986;2023-04-15T07:30:37;97212.28;;;9.74;100.00
12879;BME280;20617;49.476;10.986;2023-04-15T07:32:42;97205.69;;;9.99;100.00
12879;BME280;20617;49.476;10.986;2023-04-15T07:34:50;97205.88;;;9.96;100.00
12879;BME280;20617;49.476;10.986;2023-04-15T07:36:55;97205.53;;;10.02;100.00
12879;BME280;20617;49.476;10.986;2023-04-15T07:39:00;97202.94;;;10.02;100.00
12879;BME280;20617;49.476;10.986;2023-04-15T07:41:05;97206.53;;;10.15;100.00
12879;BME280;20617;49.476;10.986;2023-04-15T07:43:13;97200.50;;;10.45;100.00
12879;BME280;20617;49.476;10.986;2023-04-15T07:45:19;97198.00;;;10.58;100.00
12879;BME280;20617;49.476;10.986;2023-04-15T07:47:24;97193.09;;;10.53;100.00
12879;BME280;20617;49.476;10.986;2023-04-15T07:49:29;97205.03;;;10.41;100.00
12879;BME280;20617;49.476;10.986;2023-04-15T07:51:37;97201.75;;;10.38;100.00
12879;BME280;20617;49.476;10.986;2023-04-15T07:53:42;97207.50;;;10.29;100.00
12879;BME280;20617;49.476;10.986;2023-04-15T07:55:46;97213.28;;;10.34;100.00
12879;BME280;20617;49.476;10.986;2023-04-15T07:57:51;97206.94;;;10.54;100.00
12879;BME280;20617;49.476;10.986;2023-04-15T07:59:56;97208.34;;;10.74;100.00
12879;BME280;20617;49.476;10.986;2023-04-15T08:02:02;97206.47;;;10.76;100.00
12879;BME280;20617;49.476;10.986;2023-04-15T08:04:07;97201.94;;;10.79;100.00
12879;BME280;20617;49.476;10.986;2023-04-15T08:06:12;97198.69;;;10.90;100.00
12879;BME280;20617;49.476;10.986;2023-04-15T08:08:19;97203.63;;;10.95;100.00
12879;BME280;20617;49.476;10.986;2023-04-15T08:10:24;97209.09;;;10.90;100.00
12879;BME280;20617;49.476;10.986;2023-04-15T08:12:29;97207.03;;;10.81;100.00
12879;BME280;20617;49.476;10.986;2023-04-15T08:14:34;97209.94;;;10.76;100.00
12879;BME280;20617;49.476;10.986;2023-04-15T08:16:39;97210.47;;;10.67;100.00
12879;BME280;20617;49.476;10.986;2023-04-15T08:18:44;97212.50;;;10.48;100.00
12879;BME280;20617;49.476;10.986;2023-04-15T08:20:49;97203.84;;;10.47;100.00
12879;BME280;20617;49.476;10.986;2023-04-15T08:22:54;97205.22;;;10.23;100.00
12879;BME280;20617;49.476;10.986;2023-04-15T08:25:02;97213.56;;;10.43;100.00
12879;BME280;20617;49.476;10.986;2023-04-15T08:27:07;97212.94;;;10.40;100.00
12879;BME280;20617;49.476;10.986;2023-04-15T08:29:12;97225.19;;;10.38;100.00
12879;BME280;20617;49.476;10.986;2023-04-15T08:31:18;97229.47;;;10.23;100.00
12879;BME280;20617;49.476;10.986;2023-04-15T08:33:23;97245.06;;;10.23;100.00
12879;BME280;20617;49.476;10.986;2023-04-15T08:35:29;97250.56;;;10.18;100.00
12879;BME280;20617;49.476;10.986;2023-04-15T08:37:34;97247.38;;;9.97;100.00
12879;BME280;20617;49.476;10.986;2023-04-15T08:39:39;97251.19;;;9.92;100.00
12879;BME280;20617;49.476;10.986;2023-04-15T08:41:51;97255.69;;;9.88;100.00
12879;BME280;20617;49.476;10.986;2023-04-15T08:44:03;97249.13;;;9.97;100.00
12879;BME280;20617;49.476;10.986;2023-04-15T08:46:08;97239.56;;;9.97;100.00
12879;BME280;20617;49.476;10.986;2023-04-15T08:48:14;97243.88;;;9.98;100.00
12879;BME280;20617;49.476;10.986;2023-04-15T08:50:21;97242.59;;;10.06;100.00
12879;BME280;20617;49.476;10.986;2023-04-15T08:52:26;97238.28;;;10.20;100.00
12879;BME280;20617;49.476;10.986;2023-04-15T08:54:32;97232.97;;;10.38;100.00
12879;BME280;20617;49.476;10.986;2023-04-15T08:56:38;97238.03;;;10.55;100.00
12879;BME280;20617;49.476;10.986;2023-04-15T08:58:46;97242.06;;;10.15;100.00
12879;BME280;20617;49.476;10.986;2023-04-15T09:00:52;97245.19;;;10.06;100.00
12879;BME280;20617;49.476;10.986;2023-04-15T09:02:58;97244.75;;;10.13;100.00
12879;BME280;20617;49.476;10.986;2023-04-15T09:05:03;97248.13;;;10.15;100.00
12879;BME280;20617;49.476;10.986;2023-04-15T09:07:09;97251.41;;;9.87;100.00
12879;BME280;20617;49.476;10.986;2023-04-15T09:09:14;97248.47;;;9.93;100.00
12879;BME280;20617;49.476;10.986;2023-04-15T09:11:20;97242.34;;;9.94;100.00
12879;BME280;20617;49.476;10.986;2023-04-15T09:13:25;97239.25;;;9.88;100.00
12879;BME280;20617;49.476;10.986;2023-04-15T09:15:35;97246.97;;;9.89;100.00
12879;BME280;20617;49.476;10.986;2023-04-15T09:17:42;97249.06;;;9.98;100.00
12879;BME280;20617;49.476;10.986;2023-04-15T09:19:48;97249.53;;;10.21;100.00
12879;BME280;20617;49.476;10.986;2023-04-15T09:21:53;97246.91;;;10.37;100.00
12879;BME280;20617;49.476;10.986;2023-04-15T09:24:00;97252.19;;;10.35;100.00
12879;BME280;20617;49.476;10.986;2023-04-15T09:26:06;97256.22;;;10.41;100.00
12879;BME280;20617;49.476;10.986;2023-04-15T09:28:11;97256.69;;;10.33;100.00
12879;BME280;20617;49.476;10.986;2023-04-15T09:30:16;97258.63;;;10.30;100.00
12879;BME280;20617;49.476;10.986;2023-04-15T09:32:23;97267.22;;;10.14;100.00
12879;BME280;20617;49.476;10.986;2023-04-15T09:34:34;97264.81;;;10.11;100.00
12879;BME280;20617;49.476;10.986;2023-04-15T09:36:51;97274.13;;;10.15;100.00
12879;BME280;20617;49.476;10.986;2023-04-15T09:38:58;97270.41;;;10.19;100.00
12879;BME280;20617;49.476;10.986;2023-04-15T09:41:15;97269.09;;;10.28;100.00
12879;BME280;20617;49.476;10.986;2023-04-15T09:43:22;97276.97;;;10.27;100.00
12879;BME280;20617;49.476;10.986;2023-04-15T09:45:46;97272.19;;;10.35;100.00
12879;BME280;20617;49.476;10.986;2023-04-15T09:47:56;97278.72;;;10.42;100.00
12879;BME280;20617;49.476;10.986;2023-04-15T09:50:01;97287.94;;;10.48;100.00
12879;BME280;20617;49.476;10.986;2023-04-15T09:52:06;97277.03;;;10.25;100.00
12879;BME280;20617;49.476;10.986;2023-04-15T09:54:11;97281.09;;;9.99;100.00
12879;BME280;20617;49.476;10.986;2023-04-15T09:56:15;97288.81;;;9.85;100.00
12879;BME280;20617;49.476;10.986;2023-04-15T09:58:23;97280.00;;;9.71;100.00
12879;BME280;20617;49.476;10.986;2023-04-15T10:00:28;97294.41;;;9.61;100.00
12879;BME280;20617;49.476;10.986;2023-04-15T10:02:34;97294.09;;;9.51;100.00
12879;BME280;20617;49.476;10.986;2023-04-15T10:04:42;97299.28;;;9.67;100.00
12879;BME280;20617;49.476;10.986;2023-04-15T10:06:50;97286.53;;;9.63;100.00
12879;BME280;20617;49.476;10.986;2023-04-15T10:08:55;97292.50;;;9.65;100.00
12879;BME280;20617;49.476;10.986;2023-04-15T10:11:01;97292.31;;;9.68;100.00
12879;BME280;20617;49.476;10.986;2023-04-15T10:13:07;97295.19;;;9.63;100.00
12879;BME280;20617;49.476;10.986;2023-04-15T10:15:15;97302.34;;;9.42;100.00
12879;BME280;20617;49.476;10.986;2023-04-15T10:17:21;97304.09;;;9.42;100.00
12879;BME280;20617;49.476;10.986;2023-04-15T10:19:27;97308.69;;;9.54;100.00
12879;BME280;20617;49.476;10.986;2023-04-15T10:21:38;97317.31;;;9.55;100.00
12879;BME280;20617;49.476;10.986;2023-04-15T10:23:44;97321.66;;;9.70;100.00
12879;BME280;20617;49.476;10.986;2023-04-15T10:25:51;97319.72;;;9.58;100.00
12879;BME280;20617;49.476;10.986;2023-04-15T10:27:56;97323.78;;;9.63;100.00
12879;BME280;20617;49.476;10.986;2023-04-15T10:30:02;97320.06;;;9.67;100.00
12879;BME280;20617;49.476;10.986;2023-04-15T10:32:08;97316.47;;;9.70;100.00
12879;BME280;20617;49.476;10.986;2023-04-15T10:34:14;97313.88;;;9.70;100.00
12879;BME280;20617;49.476;10.986;2023-04-15T10:36:20;97322.28;;;9.75;100.00
12879;BME280;20617;49.476;10.986;2023-04-15T10:38:35;97320.00;;;9.69;100.00
12879;BME280;20617;49.476;10.986;2023-04-15T10:40:40;97330.63;;;9.80;100.00
12879;BME280;20617;49.476;10.986;2023-04-15T10:42:46;97329.00;;;9.95;100.00
12879;BME280;20617;49.476;10.986;2023-04-15T10:44:51;97319.34;;;9.97;100.00
12879;BME280;20617;49.476;10.986;2023-04-15T10:47:00;97328.81;;;9.98;100.00
12879;BME280;20617;49.476;10.986;2023-04-15T10:49:10;97319.59;;;9.92;100.00
12879;BME280;20617;49.476;10.986;2023-04-15T10:51:15;97319.06;;;9.86;100.00
12879;BME280;20617;49.476;10.986;2023-04-15T10:53:26;97318.25;;;9.69;100.00
12879;BME280;20617;49.476;10.986;2023-04-15T10:55:35;97320.72;;;9.55;100.00